createdAt,value
2022-07-28T00:00:08.773Z,102023.63
2022-07-28T00:02:36.125Z,102027.94
2022-07-28T00:05:05.773Z,102021.75
2022-07-28T00:07:32.787Z,102026.09
2022-07-28T00:10:00.830Z,102020.91
2022-07-28T00:12:28.248Z,102022.59
2022-07-28T00:14:57.325Z,102025.78
2022-07-28T00:17:26.014Z,102016.97
2022-07-28T00:19:53.267Z,102018.63
2022-07-28T00:22:21.675Z,102016.72
2022-07-28T00:24:49.237Z,102016.56
2022-07-28T00:27:19.222Z,102021.59
2022-07-28T00:29:50.178Z,102013.72
2022-07-28T00:32:18.914Z,102026.72
2022-07-28T00:34:47.072Z,102021.50
2022-07-28T00:37:14.857Z,102025.00
2022-07-28T00:39:43.071Z,102024.97
2022-07-28T00:42:10.199Z,102016.25
2022-07-28T00:44:41.656Z,102015.41
2022-07-28T00:47:08.927Z,102014.53
2022-07-28T00:49:36.072Z,102011.88
2022-07-28T00:52:05.452Z,102007.53
2022-07-28T00:54:33.476Z,102002.16
2022-07-28T00:57:01.492Z,101999.59
2022-07-28T00:59:28.611Z,101991.66
2022-07-28T01:01:57.625Z,102001.34
2022-07-28T01:04:26.280Z,102006.41
2022-07-28T01:07:02.006Z,101996.72
2022-07-28T01:09:39.474Z,101994.09
2022-07-28T01:12:40.195Z,101992.19
2022-07-28T01:15:27.290Z,101998.16
2022-07-28T01:18:10.941Z,101996.22
2022-07-28T01:20:50.487Z,101998.63
2022-07-28T01:23:29.451Z,101988.88
2022-07-28T01:26:00.190Z,101991.31
2022-07-28T01:28:57.380Z,101995.44
2022-07-28T01:31:27.883Z,101983.88
2022-07-28T01:34:05.636Z,101992.53
2022-07-28T01:36:41.709Z,101994.25
2022-07-28T01:39:09.857Z,101986.47
2022-07-28T01:41:39.254Z,101982.19
2022-07-28T01:44:10.406Z,101970.09
2022-07-28T01:46:39.225Z,101975.28
2022-07-28T01:49:09.735Z,101974.38
2022-07-28T01:51:37.437Z,101968.06
2022-07-28T01:54:07.330Z,101959.47
2022-07-28T01:56:36.310Z,101961.94
2022-07-28T01:59:09.701Z,101955.03
2022-07-28T02:01:42.420Z,101960.19
2022-07-28T02:04:12.427Z,101956.63
2022-07-28T02:06:42.444Z,101952.19
2022-07-28T02:09:10.898Z,101954.69
2022-07-28T02:11:41.781Z,101956.25
2022-07-28T02:14:23.564Z,101960.56
2022-07-28T02:17:01.916Z,101948.16
2022-07-28T02:19:31.803Z,101950.91
2022-07-28T02:21:58.874Z,101948.31
2022-07-28T02:24:28.597Z,101952.63
2022-07-28T02:27:01.566Z,101948.22
2022-07-28T02:29:50.231Z,101952.50
2022-07-28T02:32:28.659Z,101938.53
2022-07-28T02:35:29.083Z,101949.09
2022-07-28T02:38:07.511Z,101944.72
2022-07-28T02:40:37.950Z,101943.91
2022-07-28T02:43:15.545Z,101949.09
2022-07-28T02:45:45.707Z,101940.16
2022-07-28T02:48:17.421Z,101955.94
2022-07-28T02:50:46.459Z,101953.31
2022-07-28T02:53:16.412Z,101954.19
2022-07-28T02:55:47.285Z,101950.75
2022-07-28T02:58:16.730Z,101945.56
2022-07-28T03:00:44.431Z,101946.41
2022-07-28T03:03:12.159Z,101949.00
2022-07-28T03:05:41.822Z,101952.44
2022-07-28T03:08:09.386Z,101948.91
2022-07-28T03:10:36.579Z,101944.41
2022-07-28T03:13:07.225Z,101943.44
2022-07-28T03:15:36.468Z,101941.59
2022-07-28T03:18:05.947Z,101938.91
2022-07-28T03:20:34.673Z,101950.03
2022-07-28T03:23:02.252Z,101950.75
2022-07-28T03:26:00.186Z,101948.00
2022-07-28T03:28:28.273Z,101961.78
2022-07-28T03:31:03.226Z,101951.19
2022-07-28T03:33:30.374Z,101956.50
2022-07-28T03:36:06.708Z,101965.09
2022-07-28T03:38:38.995Z,101964.16
2022-07-28T03:41:09.545Z,101962.34
2022-07-28T03:43:38.019Z,101967.63
2022-07-28T03:46:11.237Z,101968.50
2022-07-28T03:48:40.319Z,101970.28
2022-07-28T03:51:07.573Z,101972.78
2022-07-28T03:53:36.049Z,101971.00
2022-07-28T03:56:03.396Z,101974.47
2022-07-28T03:58:31.709Z,101974.38
2022-07-28T04:00:59.295Z,101977.13
2022-07-28T04:03:43.312Z,101979.72
2022-07-28T04:06:15.101Z,101980.50
2022-07-28T04:08:43.603Z,101979.59
2022-07-28T04:11:10.599Z,101979.59
2022-07-28T04:13:37.711Z,101973.41
2022-07-28T04:16:07.114Z,101978.78
2022-07-28T04:18:35.825Z,101982.31
2022-07-28T04:21:02.889Z,101978.06
2022-07-28T04:23:30.838Z,101975.47
2022-07-28T04:25:58.022Z,101976.38
2022-07-28T04:28:26.438Z,101975.50
2022-07-28T04:30:53.663Z,101975.66
2022-07-28T04:33:20.870Z,101965.16
2022-07-28T04:35:47.962Z,101977.59
2022-07-28T04:38:17.111Z,101982.03
2022-07-28T04:40:44.110Z,101978.69
2022-07-28T04:43:11.352Z,101971.88
2022-07-28T04:45:38.657Z,101977.06
2022-07-28T04:48:13.430Z,101977.94
2022-07-28T04:50:42.067Z,101967.59
2022-07-28T04:53:09.096Z,101977.16
2022-07-28T04:55:38.686Z,101970.28
2022-07-28T04:58:06.987Z,101975.31
2022-07-28T05:00:36.491Z,101973.69
2022-07-28T05:03:05.733Z,101980.69
2022-07-28T05:05:32.721Z,101977.19
2022-07-28T05:07:59.756Z,101977.31
2022-07-28T05:10:26.806Z,101977.41
2022-07-28T05:12:56.163Z,101976.63
2022-07-28T05:15:23.612Z,101961.69
2022-07-28T05:17:50.858Z,101979.28
2022-07-28T05:20:17.922Z,101975.84
2022-07-28T05:22:50.888Z,101971.59
2022-07-28T05:25:19.668Z,101974.41
2022-07-28T05:27:47.735Z,101974.66
2022-07-28T05:30:15.722Z,101981.72
2022-07-28T05:32:43.126Z,101972.38
2022-07-28T05:35:10.158Z,101967.47
2022-07-28T05:37:38.173Z,101964.91
2022-07-28T05:40:14.201Z,101972.03
2022-07-28T05:42:43.050Z,101970.38
2022-07-28T05:45:15.669Z,101976.72
2022-07-28T05:47:48.028Z,101968.97
2022-07-28T05:50:16.947Z,101977.03
2022-07-28T05:52:45.284Z,101979.91
2022-07-28T05:55:12.615Z,101982.63
2022-07-28T05:57:40.696Z,101975.00
2022-07-28T06:00:13.079Z,101976.09
2022-07-28T06:02:41.519Z,101973.72
2022-07-28T06:05:08.968Z,101957.41
2022-07-28T06:07:43.021Z,101976.00
2022-07-28T06:10:12.886Z,101986.88
2022-07-28T06:12:53.545Z,101975.16
2022-07-28T06:15:26.782Z,101980.81
2022-07-28T06:17:57.591Z,101976.00
2022-07-28T06:20:27.868Z,101984.28
2022-07-28T06:22:58.247Z,101969.97
2022-07-28T06:25:28.522Z,101979.97
2022-07-28T06:27:59.606Z,101971.56
2022-07-28T06:30:27.976Z,101982.28
2022-07-28T06:32:58.043Z,101981.53
2022-07-28T06:35:26.629Z,101979.88
2022-07-28T06:37:53.928Z,101985.09
2022-07-28T06:40:23.998Z,101984.22
2022-07-28T06:42:51.910Z,101972.00
2022-07-28T06:45:21.203Z,101975.56
2022-07-28T06:47:51.422Z,101972.16
2022-07-28T06:50:25.820Z,101979.19
2022-07-28T06:52:59.044Z,101977.50
2022-07-28T06:55:34.609Z,101980.94
2022-07-28T06:58:06.465Z,101984.41
2022-07-28T07:00:34.126Z,101992.16
2022-07-28T07:03:01.887Z,101979.09
2022-07-28T07:05:32.791Z,101989.66
2022-07-28T07:08:00.417Z,101979.19
2022-07-28T07:10:27.505Z,101969.59
2022-07-28T07:12:56.464Z,101986.19
2022-07-28T07:15:23.537Z,101986.28
2022-07-28T07:17:51.195Z,101981.09
2022-07-28T07:20:19.928Z,101989.81
2022-07-28T07:22:47.280Z,101982.94
2022-07-28T07:25:16.820Z,101970.84
2022-07-28T07:27:44.507Z,101968.28
2022-07-28T07:30:12.703Z,101966.59
2022-07-28T07:32:39.993Z,101973.69
2022-07-28T07:35:07.663Z,101960.72
2022-07-28T07:37:37.806Z,101959.16
2022-07-28T07:40:06.755Z,101952.41
2022-07-28T07:42:37.082Z,101944.63
2022-07-28T07:45:06.900Z,101957.91
2022-07-28T07:47:35.100Z,101960.66
2022-07-28T07:50:04.390Z,101956.44
2022-07-28T07:52:32.266Z,101954.88
2022-07-28T07:54:59.459Z,101959.22
2022-07-28T07:57:27.249Z,101949.78
2022-07-28T07:59:56.495Z,101955.22
2022-07-28T08:02:23.560Z,101957.94
2022-07-28T08:04:57.736Z,101954.56
2022-07-28T08:07:26.766Z,101953.06
2022-07-28T08:09:56.971Z,101958.44
2022-07-28T08:12:25.234Z,101955.94
2022-07-28T08:14:53.637Z,101955.94
2022-07-28T08:17:25.943Z,101955.06
2022-07-28T08:19:58.267Z,101956.84
2022-07-28T08:22:26.658Z,101945.50
2022-07-28T08:24:53.816Z,101955.97
2022-07-28T08:27:21.291Z,101949.91
2022-07-28T08:29:48.352Z,101943.03
2022-07-28T08:32:15.443Z,101946.56
2022-07-28T08:34:42.497Z,101945.72
2022-07-28T08:37:09.812Z,101937.09
2022-07-28T08:39:36.927Z,101940.63
2022-07-28T08:42:09.016Z,101941.56
2022-07-28T08:44:56.459Z,101937.22
2022-07-28T08:47:35.593Z,101943.34
2022-07-28T08:50:08.664Z,101942.47
2022-07-28T08:52:39.476Z,101939.84
2022-07-28T08:55:08.606Z,101938.09
2022-07-28T08:57:41.679Z,101938.97
2022-07-28T09:00:10.260Z,101940.75
2022-07-28T09:02:38.897Z,101943.38
2022-07-28T09:05:07.551Z,101937.31
2022-07-28T09:07:39.371Z,101939.06
2022-07-28T09:10:07.247Z,101944.31
2022-07-28T09:12:36.174Z,101933.84
2022-07-28T09:15:07.536Z,101932.09
2022-07-28T09:17:36.992Z,101929.53
2022-07-28T09:20:11.235Z,101917.22
2022-07-28T09:23:42.353Z,101928.66
2022-07-28T09:26:12.423Z,101928.66
2022-07-28T09:28:53.485Z,101923.38
2022-07-28T09:31:23.569Z,101917.25
2022-07-28T09:34:05.192Z,101932.16
2022-07-28T09:36:40.662Z,101931.25
2022-07-28T09:39:08.502Z,101921.63
2022-07-28T09:41:51.732Z,101921.63
2022-07-28T09:44:22.481Z,101925.13
2022-07-28T09:46:51.323Z,101921.53
2022-07-28T09:49:28.108Z,101925.00
2022-07-28T09:52:00.962Z,101910.16
2022-07-28T09:54:28.107Z,101925.03
2022-07-28T09:56:57.611Z,101911.91
2022-07-28T09:59:25.876Z,101912.75
2022-07-28T10:02:01.706Z,101913.66
2022-07-28T10:04:41.469Z,101911.00
2022-07-28T10:07:17.395Z,101905.75
2022-07-28T10:10:21.737Z,101904.03
2022-07-28T10:12:50.044Z,101905.78
2022-07-28T10:15:46.811Z,101900.50
2022-07-28T10:18:18.190Z,101899.66
2022-07-28T10:20:45.867Z,101883.00
2022-07-28T10:23:17.461Z,101902.22
2022-07-28T10:25:45.567Z,101896.91
2022-07-28T10:28:21.504Z,101885.56
2022-07-28T10:30:52.017Z,101887.16
2022-07-28T10:33:22.563Z,101900.22
2022-07-28T10:35:55.382Z,101880.97
2022-07-28T10:38:32.753Z,101882.72
2022-07-28T10:41:03.090Z,101882.72
2022-07-28T10:43:33.928Z,101868.72
2022-07-28T10:46:08.105Z,101873.91
2022-07-28T10:48:38.714Z,101881.84
2022-07-28T10:51:06.561Z,101883.53
2022-07-28T10:53:43.332Z,101880.91
2022-07-28T10:56:23.723Z,101876.66
2022-07-28T10:59:21.976Z,101875.59
2022-07-28T11:01:58.017Z,101863.22
2022-07-28T11:04:45.153Z,101861.44
2022-07-28T11:07:14.485Z,101865.81
2022-07-28T11:09:41.779Z,101866.72
2022-07-28T11:12:11.642Z,101850.91
2022-07-28T11:14:39.842Z,101844.72
2022-07-28T11:17:10.341Z,101856.72
2022-07-28T11:20:00.928Z,101858.47
2022-07-28T11:22:35.091Z,101853.13
2022-07-28T11:25:19.021Z,101856.69
2022-07-28T11:27:52.255Z,101841.66
2022-07-28T11:30:22.539Z,101848.84
2022-07-28T11:32:58.774Z,101854.09
2022-07-28T11:35:48.574Z,101843.41
2022-07-28T11:38:15.913Z,101836.44
2022-07-28T11:40:48.894Z,101847.75
2022-07-28T11:43:28.620Z,101853.78
2022-07-28T11:46:09.645Z,101842.31
2022-07-28T11:48:41.835Z,101842.25
2022-07-28T11:51:10.924Z,101839.34
2022-07-28T11:53:46.551Z,101831.94
2022-07-28T11:56:23.414Z,101832.84
2022-07-28T11:58:58.561Z,101812.44
2022-07-28T12:01:27.136Z,101823.34
2022-07-28T12:03:59.335Z,101818.59
2022-07-28T12:06:37.707Z,101810.19
2022-07-28T12:09:11.362Z,101813.72
2022-07-28T12:11:43.941Z,101812.50
2022-07-28T12:14:16.429Z,101812.22
2022-07-28T12:16:51.620Z,101816.69
2022-07-28T12:19:22.541Z,101807.75
2022-07-28T12:21:53.603Z,101809.84
2022-07-28T12:24:27.891Z,101802.56
2022-07-28T12:26:59.514Z,101802.66
2022-07-28T12:29:32.274Z,101806.78
2022-07-28T12:32:06.577Z,101795.81
2022-07-28T12:34:36.426Z,101797.22
2022-07-28T12:37:09.715Z,101800.00
2022-07-28T12:39:39.732Z,101793.56
2022-07-28T12:42:10.871Z,101793.97
2022-07-28T12:44:41.048Z,101783.09
2022-07-28T12:47:11.861Z,101790.00
2022-07-28T12:49:40.696Z,101789.53
2022-07-28T12:52:24.481Z,101779.97
2022-07-28T12:54:55.463Z,101781.50
2022-07-28T12:57:49.277Z,101778.88
2022-07-28T13:00:27.392Z,101775.16
2022-07-28T13:02:58.701Z,101766.47
2022-07-28T13:05:31.493Z,101767.50
2022-07-28T13:08:06.491Z,101766.66
2022-07-28T13:10:39.649Z,101747.63
2022-07-28T13:13:10.623Z,101753.66
2022-07-28T13:15:37.654Z,101750.81
2022-07-28T13:18:06.374Z,101748.19
2022-07-28T13:20:47.961Z,101746.38
2022-07-28T13:23:15.023Z,101743.59
2022-07-28T13:25:42.246Z,101740.22
2022-07-28T13:28:27.273Z,101752.34
2022-07-28T13:30:56.624Z,101751.91
2022-07-28T13:33:24.146Z,101753.06
2022-07-28T13:35:52.931Z,101743.97
2022-07-28T13:38:21.213Z,101754.56
2022-07-28T13:40:48.340Z,101754.13
2022-07-28T13:43:36.154Z,101744.75
2022-07-28T13:46:06.245Z,101745.47
2022-07-28T13:48:36.198Z,101735.38
2022-07-28T13:51:04.862Z,101745.56
2022-07-28T13:53:32.738Z,101742.69
2022-07-28T13:56:00.192Z,101741.34
2022-07-28T13:58:27.490Z,101746.63
2022-07-28T14:00:56.602Z,101736.84
2022-07-28T14:03:24.008Z,101738.88
2022-07-28T14:05:52.951Z,101728.28
2022-07-28T14:08:25.092Z,101740.88
2022-07-28T14:11:01.450Z,101738.31
2022-07-28T14:13:31.700Z,101728.78
2022-07-28T14:16:09.835Z,101737.28
2022-07-28T14:18:40.980Z,101722.16
2022-07-28T14:21:09.157Z,101732.63
2022-07-28T14:23:38.728Z,101734.28
2022-07-28T14:26:34.555Z,101731.63
2022-07-28T14:28:59.070Z,101724.72
2022-07-28T14:31:27.260Z,101734.97
2022-07-28T14:33:57.896Z,101728.34
2022-07-28T14:36:27.316Z,101717.53
2022-07-28T14:38:56.590Z,101725.78
2022-07-28T14:41:27.049Z,101728.06
2022-07-28T14:43:57.706Z,101731.38
2022-07-28T14:46:29.712Z,101735.56
2022-07-28T14:48:58.023Z,101730.72
2022-07-28T14:51:26.311Z,101725.84
2022-07-28T14:53:57.511Z,101707.59
2022-07-28T14:56:24.693Z,101716.59
2022-07-28T14:58:52.947Z,101713.72
2022-07-28T15:01:23.639Z,101709.28
2022-07-28T15:03:51.514Z,101713.78
2022-07-28T15:06:18.676Z,101708.88
2022-07-28T15:08:45.806Z,101695.97
2022-07-28T15:11:12.905Z,101705.38
2022-07-28T15:13:40.516Z,101698.78
2022-07-28T15:16:09.070Z,101692.69
2022-07-28T15:18:36.419Z,101687.38
2022-07-28T15:21:03.593Z,101699.03
2022-07-28T15:23:30.635Z,101700.25
2022-07-28T15:25:58.267Z,101701.69
2022-07-28T15:28:27.737Z,101691.66
2022-07-28T15:30:56.539Z,101676.03
2022-07-28T15:33:27.740Z,101690.75
2022-07-28T15:35:59.862Z,101684.66
2022-07-28T15:38:31.619Z,101689.06
2022-07-28T15:40:59.334Z,101681.25
2022-07-28T15:43:28.706Z,101682.34
2022-07-28T15:45:57.947Z,101672.25
2022-07-28T15:48:27.157Z,101678.50
2022-07-28T15:50:56.508Z,101674.56
2022-07-28T15:53:23.707Z,101682.09
2022-07-28T15:55:52.037Z,101678.00
2022-07-28T15:58:21.734Z,101675.78
2022-07-28T16:00:51.544Z,101680.34
2022-07-28T16:03:21.771Z,101681.25
2022-07-28T16:05:51.310Z,101679.13
2022-07-28T16:08:22.948Z,101678.81
2022-07-28T16:10:54.185Z,101687.91
2022-07-28T16:13:33.293Z,101674.13
2022-07-28T16:16:08.068Z,101664.88
2022-07-28T16:18:40.145Z,101681.50
2022-07-28T16:21:08.487Z,101679.81
2022-07-28T16:23:38.310Z,101671.94
2022-07-28T16:26:09.256Z,101667.50
2022-07-28T16:28:36.779Z,101671.09
2022-07-28T16:31:06.517Z,101673.09
2022-07-28T16:33:34.998Z,101669.94
2022-07-28T16:36:02.639Z,101663.28
2022-07-28T16:38:30.246Z,101666.81
2022-07-28T16:40:57.843Z,101665.19
2022-07-28T16:43:27.167Z,101677.63
2022-07-28T16:45:56.583Z,101674.41
2022-07-28T16:48:31.310Z,101669.28
2022-07-28T16:50:58.437Z,101673.81
2022-07-28T16:53:27.887Z,101665.97
2022-07-28T16:55:57.409Z,101665.13
2022-07-28T16:58:24.636Z,101665.34
2022-07-28T17:00:51.927Z,101668.16
2022-07-28T17:03:20.530Z,101657.69
2022-07-28T17:05:47.699Z,101662.88
2022-07-28T17:08:14.830Z,101661.09
2022-07-28T17:10:42.041Z,101669.97
2022-07-28T17:13:11.917Z,101673.53
2022-07-28T17:15:40.379Z,101674.50
2022-07-28T17:18:08.071Z,101671.00
2022-07-28T17:20:41.811Z,101669.25
2022-07-28T17:23:09.477Z,101664.00
2022-07-28T17:28:27.287Z,101668.41
2022-07-28T17:30:56.730Z,101666.63
2022-07-28T17:33:27.380Z,101665.75
2022-07-28T17:35:58.924Z,101667.56
2022-07-28T17:38:32.966Z,101664.13
2022-07-28T17:41:05.764Z,101661.56
2022-07-28T17:43:32.944Z,101662.38
2022-07-28T17:46:01.051Z,101666.03
2022-07-28T17:48:30.760Z,101659.19
2022-07-28T17:50:58.063Z,101657.44
2022-07-28T17:53:28.120Z,101651.34
2022-07-28T17:56:01.229Z,101660.97
2022-07-28T17:58:29.563Z,101668.00
2022-07-28T18:01:11.033Z,101644.47
2022-07-28T18:03:59.715Z,101663.72
2022-07-28T18:06:29.247Z,101663.78
2022-07-28T18:09:05.947Z,101655.06
2022-07-28T18:11:55.594Z,101659.47
2022-07-28T18:14:27.545Z,101664.88
2022-07-28T18:16:57.483Z,101660.59
2022-07-28T18:19:27.344Z,101669.41
2022-07-28T18:21:57.639Z,101658.13
2022-07-28T18:24:27.081Z,101666.91
2022-07-28T18:26:58.033Z,101667.00
2022-07-28T18:29:37.777Z,101656.59
2022-07-28T18:32:07.803Z,101663.59
2022-07-28T18:34:40.433Z,101665.41
2022-07-28T18:37:07.552Z,101670.72
2022-07-28T18:39:37.385Z,101668.13
2022-07-28T18:42:07.479Z,101657.72
2022-07-28T18:44:35.154Z,101668.25
2022-07-28T18:47:02.263Z,101669.22
2022-07-28T18:49:29.600Z,101669.25
2022-07-28T18:52:08.411Z,101664.94
2022-07-28T18:54:36.418Z,101671.13
2022-07-28T18:57:06.504Z,101659.75
2022-07-28T18:59:33.720Z,101660.69
2022-07-28T19:02:01.336Z,101672.09
2022-07-28T19:04:28.552Z,101672.16
2022-07-28T19:07:00.829Z,101670.44
2022-07-28T19:09:30.440Z,101669.63
2022-07-28T19:12:06.444Z,101667.91
2022-07-28T19:14:34.065Z,101667.06
2022-07-28T19:17:05.178Z,101674.97
2022-07-28T19:19:36.706Z,101668.03
2022-07-28T19:22:06.459Z,101684.63
2022-07-28T19:24:36.269Z,101677.69
2022-07-28T19:27:06.437Z,101693.44
2022-07-28T19:29:39.211Z,101693.44
2022-07-28T19:32:06.590Z,101698.69
2022-07-28T19:34:37.553Z,101705.66
2022-07-28T19:37:09.678Z,101697.81
2022-07-28T19:39:45.971Z,101704.81
2022-07-28T19:42:13.317Z,101703.09
2022-07-28T19:44:42.352Z,101717.06
2022-07-28T19:47:09.400Z,101717.06
2022-07-28T19:49:39.312Z,101717.94
2022-07-28T19:52:09.097Z,101712.72
2022-07-28T19:54:38.264Z,101713.59
2022-07-28T19:57:12.601Z,101704.88
2022-07-28T19:59:41.764Z,101711.88
2022-07-28T20:02:11.538Z,101714.50
2022-07-28T20:04:38.911Z,101708.38
2022-07-28T20:07:06.491Z,101710.13
2022-07-28T20:09:35.735Z,101707.50
2022-07-28T20:12:03.158Z,101703.16
2022-07-28T20:14:30.228Z,101708.41
2022-07-28T20:16:57.839Z,101711.00
2022-07-28T20:19:27.488Z,101704.91
2022-07-28T20:21:56.974Z,101717.09
2022-07-28T20:24:29.852Z,101704.88
2022-07-28T20:27:01.281Z,101726.72
2022-07-28T20:29:28.338Z,101727.59
2022-07-28T20:31:57.651Z,101723.22
2022-07-28T20:34:25.935Z,101731.91
2022-07-28T20:36:56.827Z,101731.91
2022-07-28T20:39:43.857Z,101732.75
2022-07-28T20:42:11.434Z,101738.00
2022-07-28T20:44:38.778Z,101738.00
2022-07-28T20:47:06.475Z,101742.38
2022-07-28T20:49:33.819Z,101740.59
2022-07-28T20:52:02.258Z,101740.59
2022-07-28T20:54:29.325Z,101726.59
2022-07-28T20:57:02.139Z,101729.22
2022-07-28T20:59:32.173Z,101736.19
2022-07-28T21:01:59.324Z,101731.84
2022-07-28T21:04:29.262Z,101728.31
2022-07-28T21:07:02.117Z,101732.66
2022-07-28T21:09:31.890Z,101730.00
2022-07-28T21:11:59.110Z,101733.50
2022-07-28T21:14:28.510Z,101739.59
2022-07-28T21:16:58.755Z,101727.38
2022-07-28T21:19:27.261Z,101737.84
2022-07-28T21:21:56.768Z,101743.06
2022-07-28T21:24:23.900Z,101750.91
2022-07-28T21:26:51.836Z,101744.75
2022-07-28T21:32:04.267Z,101754.38
2022-07-28T21:34:34.236Z,101751.75
2022-07-28T21:37:06.955Z,101757.84
2022-07-28T21:39:35.614Z,101751.72
2022-07-28T21:42:06.934Z,101756.06
2022-07-28T21:44:39.084Z,101758.66
2022-07-28T21:47:06.555Z,101746.44
2022-07-28T21:49:33.752Z,101756.03
2022-07-28T21:52:00.895Z,101745.50
2022-07-28T21:54:28.004Z,101767.31
2022-07-28T21:56:57.662Z,101743.69
2022-07-28T21:59:24.738Z,101763.75
2022-07-28T22:01:51.944Z,101764.59
2022-07-28T22:04:19.972Z,101766.31
2022-07-28T22:06:47.509Z,101754.06
2022-07-28T22:09:15.142Z,101760.16
2022-07-28T22:11:42.322Z,101762.75
2022-07-28T22:14:09.427Z,101757.44
2022-07-28T22:16:36.998Z,101754.81
2022-07-28T22:19:06.609Z,101757.41
2022-07-28T22:21:37.143Z,101753.94
2022-07-28T22:24:04.906Z,101758.25
2022-07-28T22:26:31.935Z,101759.97
2022-07-28T22:28:59.051Z,101758.22
2022-07-28T22:31:29.244Z,101763.44
2022-07-28T22:33:57.866Z,101754.69
2022-07-28T22:36:26.127Z,101743.25
2022-07-28T22:38:57.656Z,101769.44
2022-07-28T22:41:25.054Z,101770.28
2022-07-28T22:43:53.510Z,101765.03
2022-07-28T22:46:21.528Z,101768.47
2022-07-28T22:48:48.728Z,101764.94
2022-07-28T22:51:16.345Z,101774.47
2022-07-28T22:53:43.445Z,101764.88
2022-07-28T22:56:23.200Z,101774.47
2022-07-28T22:58:53.142Z,101777.03
2022-07-28T23:01:23.016Z,101780.53
2022-07-28T23:03:52.995Z,101774.41
2022-07-28T23:06:21.468Z,101761.28
2022-07-28T23:08:48.612Z,101775.22
2022-07-28T23:11:15.745Z,101762.06
2022-07-28T23:13:42.910Z,101763.81
2022-07-28T23:16:11.636Z,101770.69
2022-07-28T23:18:40.432Z,101771.47
2022-07-28T23:21:08.370Z,101764.47
2022-07-28T23:23:37.766Z,101762.72
2022-07-28T23:26:06.525Z,101762.69
2022-07-28T23:28:36.117Z,101762.66
2022-07-28T23:31:06.060Z,101759.16
2022-07-28T23:33:55.317Z,101762.59
2022-07-28T23:36:26.771Z,101760.78
2022-07-28T23:38:58.669Z,101763.44
2022-07-28T23:41:27.766Z,101763.38
2022-07-28T23:43:57.199Z,101748.56
2022-07-28T23:46:24.391Z,101762.47
2022-07-28T23:48:51.820Z,101767.69
2022-07-28T23:51:21.107Z,101764.19
2022-07-28T23:53:55.890Z,101759.88
2022-07-28T23:56:23.782Z,101741.44
2022-07-28T23:58:53.774Z,101754.47
